Time;durP1;ratioP1;P1;durP2;ratioP2;P2;SDS_P1;SDS_P2;PMS_P1;PMS_P2;Temp;Humidity;BMP_temperature;BMP_pressure;BME280_temperature;BME280_humidity;BME280_pressure;Samples;Min_cycle;Max_cycle;Signal;HPM_P1;HPM_P2
2023/06/12 00:01:50;;;;;;;6.05;3.20;;;18.30;74.40;;;;;;5030324;28;20407;-69
2023/06/12 00:04:16;;;;;;;5.05;3.42;;;18.30;73.20;;;;;;5023722;28;20056;-69
2023/06/12 00:06:42;;;;;;;5.35;3.15;;;18.20;74.50;;;;;;5021840;28;20018;-69
2023/06/12 00:09:07;;;;;;;5.03;3.35;;;18.20;75.70;;;;;;5025853;28;20025;-69
2023/06/12 00:11:33;;;;;;;11.35;3.58;;;18.10;75.30;;;;;;5022690;28;20107;-68
2023/06/12 00:13:59;;;;;;;5.38;3.55;;;18.00;76.90;;;;;;5016792;28;20029;-69
2023/06/12 00:16:25;;;;;;;4.85;3.28;;;17.90;77.20;;;;;;5020700;28;20025;-68
2023/06/12 00:18:51;;;;;;;5.80;4.00;;;17.80;78.00;;;;;;5012237;28;20060;-68
2023/06/12 00:21:19;;;;;;;6.35;3.40;;;17.70;78.70;;;;;;5025801;28;20459;-68
2023/06/12 00:23:45;;;;;;;5.72;3.22;;;17.50;79.00;;;;;;5025662;28;20521;-68
2023/06/12 00:26:11;;;;;;;7.28;3.67;;;17.40;79.80;;;;;;5016991;28;20104;-68
2023/06/12 00:28:36;;;;;;;8.55;3.50;;;17.40;79.90;;;;;;5010316;28;20685;-68
2023/06/12 00:31:02;;;;;;;5.22;2.90;;;17.30;79.90;;;;;;5017757;28;20026;-69
2023/06/12 00:33:28;;;;;;;7.97;3.75;;;17.30;79.70;;;;;;5020637;28;20387;-69
2023/06/12 00:35:53;;;;;;;6.35;3.75;;;17.30;80.20;;;;;;5028132;28;20103;-68
2023/06/12 00:38:20;;;;;;;5.70;3.55;;;17.20;80.60;;;;;;5025050;28;20034;-68
2023/06/12 00:40:46;;;;;;;6.68;3.70;;;17.10;80.70;;;;;;5027115;28;20482;-68
2023/06/12 00:43:12;;;;;;;6.85;3.58;;;17.10;80.90;;;;;;5028964;28;20025;-67
2023/06/12 00:45:37;;;;;;;9.55;3.90;;;17.10;80.80;;;;;;5027710;28;20057;-68
2023/06/12 00:48:05;;;;;;;4.22;2.80;;;17.00;80.90;;;;;;5024240;28;20056;-68
2023/06/12 00:50:31;;;;;;;9.27;3.90;;;17.00;80.90;;;;;;5023351;28;20033;-68
2023/06/12 00:52:59;;;;;;;6.38;3.55;;;17.00;81.10;;;;;;5029683;28;20030;-69
2023/06/12 00:55:26;;;;;;;7.57;2.85;;;17.00;80.80;;;;;;5020949;28;20120;-68
2023/06/12 00:57:51;;;;;;;6.25;3.17;;;17.00;80.90;;;;;;5029206;28;20749;-68
2023/06/12 01:00:18;;;;;;;6.75;3.63;;;17.00;81.10;;;;;;5028165;28;20025;-68
2023/06/12 01:03:06;;;;;;;5.78;3.42;;;16.90;80.70;;;;;;5018806;28;20048;-68
2023/06/12 01:05:37;;;;;;;6.90;3.30;;;16.90;80.80;;;;;;5025612;28;20026;-68
2023/06/12 01:08:48;;;;;;;5.90;3.55;;;16.90;80.00;;;;;;5027246;28;20029;-68
2023/06/12 01:11:17;;;;;;;7.10;3.63;;;17.00;78.50;;;;;;5012336;28;20046;-68
2023/06/12 01:13:43;;;;;;;5.38;3.20;;;17.10;77.80;;;;;;5019911;28;20033;-68
2023/06/12 01:16:08;;;;;;;4.35;3.50;;;17.20;78.50;;;;;;5022539;28;20025;-68
2023/06/12 01:18:34;;;;;;;4.47;3.17;;;17.30;78.60;;;;;;4999488;28;20053;-68
2023/06/12 01:21:04;;;;;;;7.20;3.90;;;17.20;78.70;;;;;;5023956;28;20026;-68
2023/06/12 01:23:50;;;;;;;7.72;2.95;;;17.20;78.30;;;;;;5012562;28;20372;-68
2023/06/12 01:26:28;;;;;;;5.40;3.45;;;17.20;78.30;;;;;;5013962;28;20087;-68
2023/06/12 01:28:56;;;;;;;7.03;3.30;;;17.20;78.80;;;;;;5022082;28;20033;-69
2023/06/12 01:31:38;;;;;;;9.38;3.72;;;17.10;78.80;;;;;;5018392;28;20032;-68
2023/06/12 01:34:21;;;;;;;5.15;2.90;;;17.00;79.10;;;;;;5021655;28;20090;-68
2023/06/12 01:36:57;;;;;;;5.85;3.38;;;17.00;78.50;;;;;;5020781;28;20057;-68
2023/06/12 01:39:25;;;;;;;9.35;3.72;;;17.00;79.00;;;;;;5025804;28;20456;-68
2023/06/12 01:41:52;;;;;;;6.72;3.20;;;17.00;78.90;;;;;;5020997;28;20037;-68
2023/06/12 01:44:20;;;;;;;7.78;3.63;;;17.10;78.30;;;;;;5023406;28;20024;-68
2023/06/12 01:46:46;;;;;;;6.50;3.50;;;17.10;78.50;;;;;;5025623;28;20022;-68
2023/06/12 01:49:11;;;;;;;5.43;3.63;;;17.10;79.70;;;;;;5020253;28;20079;-68
2023/06/12 01:51:37;;;;;;;7.53;3.35;;;17.10;79.90;;;;;;5024927;28;20488;-69
2023/06/12 01:54:03;;;;;;;6.38;3.38;;;17.00;80.30;;;;;;5017827;28;20072;-68
2023/06/12 01:56:28;;;;;;;6.82;3.88;;;16.90;80.30;;;;;;5015997;28;20063;-68
2023/06/12 01:58:54;;;;;;;6.53;3.78;;;16.90;80.40;;;;;;5016959;28;20487;-68
2023/06/12 02:01:20;;;;;;;5.88;3.40;;;16.90;80.20;;;;;;5023900;28;20029;-69
2023/06/12 02:03:47;;;;;;;5.93;4.25;;;16.80;80.40;;;;;;5018107;28;20395;-69
2023/06/12 02:06:16;;;;;;;6.30;3.05;;;16.80;79.60;;;;;;5027235;28;20026;-69
2023/06/12 02:08:43;;;;;;;6.20;3.33;;;16.90;79.70;;;;;;5020254;28;20045;-69
2023/06/12 02:11:09;;;;;;;7.40;3.97;;;16.90;79.60;;;;;;5016730;28;20025;-70
2023/06/12 02:13:34;;;;;;;7.93;3.20;;;17.00;79.70;;;;;;5028513;28;20061;-69
2023/06/12 02:16:03;;;;;;;6.28;3.72;;;16.90;79.90;;;;;;5014412;28;20056;-68
2023/06/12 02:18:30;;;;;;;5.22;3.45;;;16.80;80.70;;;;;;5007755;28;20045;-68
2023/06/12 02:20:55;;;;;;;4.38;3.00;;;16.80;81.30;;;;;;5024629;28;20025;-68
2023/06/12 02:23:21;;;;;;;5.15;3.22;;;16.80;80.70;;;;;;5020141;28;20041;-68
2023/06/12 02:25:47;;;;;;;5.70;3.55;;;16.80;80.50;;;;;;5020443;28;20037;-68
2023/06/12 02:28:12;;;;;;;6.20;3.92;;;16.80;80.60;;;;;;5021717;28;20612;-68
2023/06/12 02:30:38;;;;;;;6.07;3.85;;;16.80;81.00;;;;;;5020968;28;20029;-68
2023/06/12 02:33:09;;;;;;;6.57;3.42;;;16.80;81.50;;;;;;5017972;28;20403;-69
2023/06/12 02:35:35;;;;;;;7.25;3.97;;;16.80;81.80;;;;;;5014191;28;20033;-68
2023/06/12 02:38:01;;;;;;;10.20;3.55;;;16.70;82.20;;;;;;5013549;28;20499;-68
2023/06/12 02:40:26;;;;;;;6.88;3.40;;;16.60;81.90;;;;;;5011132;28;20059;-68
2023/06/12 02:42:52;;;;;;;7.72;3.70;;;16.60;81.60;;;;;;5015599;28;20034;-68
2023/06/12 02:45:17;;;;;;;5.20;3.35;;;16.70;81.30;;;;;;5016210;28;20025;-66
2023/06/12 02:47:43;;;;;;;6.22;3.67;;;16.80;81.20;;;;;;5015283;28;20042;-69
2023/06/12 02:50:09;;;;;;;5.05;3.15;;;16.80;80.80;;;;;;5029991;28;20033;-68
2023/06/12 02:52:35;;;;;;;4.38;3.00;;;16.80;81.30;;;;;;5031987;28;20422;-68
2023/06/12 02:55:00;;;;;;;6.40;3.75;;;16.80;81.50;;;;;;5028110;28;20085;-68
2023/06/12 02:57:26;;;;;;;6.47;3.65;;;16.80;81.80;;;;;;5020538;28;20034;-68
2023/06/12 02:59:51;;;;;;;5.15;3.33;;;16.80;82.60;;;;;;5030829;28;20022;-69
2023/06/12 03:02:17;;;;;;;4.47;3.28;;;16.70;84.80;;;;;;5032252;28;20490;-68
2023/06/12 03:04:42;;;;;;;11.60;4.15;;;16.60;84.00;;;;;;5029601;28;20028;-69
2023/06/12 03:07:08;;;;;;;5.30;3.45;;;16.60;84.30;;;;;;5030395;28;20370;-69
2023/06/12 03:09:34;;;;;;;5.93;3.65;;;16.60;84.10;;;;;;5025469;28;20074;-68
2023/06/12 03:12:01;;;;;;;6.78;3.88;;;16.50;84.20;;;;;;5022895;28;20022;-69
2023/06/12 03:14:27;;;;;;;4.47;3.40;;;16.50;84.20;;;;;;5027180;28;20395;-68
2023/06/12 03:16:53;;;;;;;6.40;3.67;;;16.60;85.00;;;;;;5012299;28;20040;-68
2023/06/12 03:19:19;;;;;;;4.85;3.42;;;16.50;84.50;;;;;;5028340;28;20491;-69
2023/06/12 03:21:44;;;;;;;6.00;3.25;;;16.40;86.40;;;;;;5015275;28;20036;-68
2023/06/12 03:24:10;;;;;;;4.97;3.30;;;16.40;86.90;;;;;;5021570;28;20538;-69
2023/06/12 03:26:36;;;;;;;6.07;3.53;;;16.40;86.90;;;;;;5023063;28;20123;-69
2023/06/12 03:29:02;;;;;;;4.82;3.33;;;16.30;87.60;;;;;;5029873;28;20110;-68
2023/06/12 03:31:28;;;;;;;8.25;3.17;;;16.30;87.00;;;;;;5029621;28;20037;-68
2023/06/12 03:33:54;;;;;;;6.78;3.70;;;16.30;88.50;;;;;;5022222;28;20952;-68
2023/06/12 03:36:21;;;;;;;5.53;3.58;;;16.30;89.30;;;;;;5022037;28;20026;-68
2023/06/12 03:38:47;;;;;;;5.78;3.72;;;16.30;88.90;;;;;;5024491;28;20114;-69
2023/06/12 03:41:12;;;;;;;5.60;3.70;;;16.40;88.20;;;;;;5021748;28;20483;-68
2023/06/12 03:43:38;;;;;;;5.55;3.30;;;16.50;87.10;;;;;;5023052;28;20026;-68
2023/06/12 03:46:04;;;;;;;14.63;5.13;;;16.60;86.80;;;;;;5028168;28;20110;-68
2023/06/12 03:48:30;;;;;;;5.80;3.50;;;16.70;87.40;;;;;;5012985;28;20496;-68
2023/06/12 03:50:56;;;;;;;5.70;3.95;;;16.80;87.00;;;;;;5013845;28;20044;-69
2023/06/12 03:53:21;;;;;;;6.90;3.70;;;16.80;87.30;;;;;;5020501;28;20466;-68
2023/06/12 03:55:47;;;;;;;10.77;3.72;;;16.80;87.00;;;;;;5027669;28;20045;-68
2023/06/12 03:58:16;;;;;;;8.68;4.15;;;16.80;87.00;;;;;;5024822;28;20494;-69
2023/06/12 04:00:43;;;;;;;6.05;3.75;;;16.80;87.20;;;;;;5023562;28;20559;-69
2023/06/12 04:03:09;;;;;;;14.27;3.63;;;16.90;87.80;;;;;;5021315;28;20025;-69
2023/06/12 04:05:34;;;;;;;5.75;3.67;;;16.70;90.40;;;;;;5025391;28;20372;-69
2023/06/12 04:08:00;;;;;;;6.82;3.97;;;16.80;90.10;;;;;;5024740;28;20044;-69
2023/06/12 04:10:25;;;;;;;6.05;3.95;;;16.90;88.50;;;;;;5029913;28;20021;-69
2023/06/12 04:12:51;;;;;;;5.60;3.90;;;17.00;88.10;;;;;;5022062;28;20445;-69
2023/06/12 04:15:17;;;;;;;6.13;4.00;;;17.20;88.30;;;;;;5025980;28;20124;-68
2023/06/12 04:17:42;;;;;;;5.82;3.83;;;17.40;86.90;;;;;;5004992;28;20495;-68
2023/06/12 04:20:08;;;;;;;8.57;3.72;;;17.50;86.00;;;;;;5028105;28;20507;-68
2023/06/12 04:22:35;;;;;;;6.18;3.83;;;17.60;86.00;;;;;;5012559;28;20127;-68
2023/06/12 04:25:04;;;;;;;5.75;3.58;;;17.70;85.00;;;;;;5013631;28;20042;-68
2023/06/12 04:27:30;;;;;;;6.18;4.32;;;17.80;85.10;;;;;;5024299;28;20128;-68
2023/06/12 04:29:57;;;;;;;13.18;5.15;;;17.90;85.10;;;;;;5017782;28;20125;-68
2023/06/12 04:32:23;;;;;;;6.55;3.53;;;18.10;84.70;;;;;;5015230;28;20025;-68
2023/06/12 04:34:49;;;;;;;6.53;3.58;;;18.80;83.20;;;;;;5028261;28;20465;-68
2023/06/12 04:37:18;;;;;;;5.38;3.63;;;20.00;79.20;;;;;;5018122;28;20247;-68
2023/06/12 04:39:45;;;;;;;15.38;4.13;;;21.30;75.20;;;;;;5011094;28;20036;-68
2023/06/12 04:42:14;;;;;;;5.18;3.65;;;22.40;72.40;;;;;;5010524;28;20072;-68
2023/06/12 04:44:39;;;;;;;5.80;3.85;;;23.50;69.40;;;;;;5012654;28;20071;-66
2023/06/12 04:47:08;;;;;;;4.63;3.45;;;24.50;66.60;;;;;;5011334;28;20491;-66
2023/06/12 04:49:35;;;;;;;5.30;3.55;;;25.00;65.10;;;;;;5014127;28;20132;-67
2023/06/12 04:52:04;;;;;;;4.38;3.15;;;25.50;64.50;;;;;;5022642;28;20703;-67
2023/06/12 04:54:38;;;;;;;4.57;3.42;;;26.00;62.20;;;;;;5022709;28;20013;-67
2023/06/12 04:57:12;;;;;;;5.25;3.55;;;26.10;62.50;;;;;;5022783;28;20501;-67
2023/06/12 04:59:39;;;;;;;5.35;3.13;;;26.70;61.80;;;;;;5028164;28;20426;-67
2023/06/12 05:02:07;;;;;;;4.97;3.50;;;26.90;61.20;;;;;;5020977;28;20523;-67
2023/06/12 05:04:32;;;;;;;5.78;3.75;;;27.70;60.10;;;;;;5027625;28;20021;-67
2023/06/12 05:06:59;;;;;;;5.15;3.38;;;28.30;59.00;;;;;;5028456;28;20621;-67
2023/06/12 05:09:25;;;;;;;4.13;3.17;;;28.40;58.70;;;;;;5024588;28;20021;-67
2023/06/12 05:11:51;;;;;;;4.57;3.10;;;29.50;56.80;;;;;;5026883;28;20045;-67
2023/06/12 05:14:16;;;;;;;5.45;3.30;;;29.80;56.10;;;;;;5026099;28;20403;-67
2023/06/12 05:16:46;;;;;;;4.75;3.03;;;29.00;56.80;;;;;;5025670;28;20028;-67
2023/06/12 05:19:12;;;;;;;5.95;3.42;;;27.70;58.50;;;;;;5024353;28;20057;-67
2023/06/12 05:21:39;;;;;;;5.18;3.10;;;26.10;61.60;;;;;;5022002;28;20025;-67
2023/06/12 05:24:05;;;;;;;6.80;3.40;;;25.10;63.70;;;;;;5026079;28;20105;-66
2023/06/12 05:26:30;;;;;;;6.97;3.42;;;24.70;66.00;;;;;;5022439;28;20194;-67
2023/06/12 05:28:56;;;;;;;5.07;3.53;;;24.80;65.60;;;;;;5022162;28;20537;-67
2023/06/12 05:31:22;;;;;;;6.78;3.70;;;25.30;65.10;;;;;;5019185;28;20505;-67
2023/06/12 05:33:48;;;;;;;6.03;3.20;;;26.30;63.50;;;;;;5016723;28;20079;-67
2023/06/12 05:36:13;;;;;;;5.90;3.63;;;27.30;62.40;;;;;;5021143;28;20108;-67
2023/06/12 05:38:45;;;;;;;5.25;3.45;;;27.80;60.80;;;;;;5019703;28;20847;-67
2023/06/12 05:41:12;;;;;;;10.70;3.78;;;27.10;61.60;;;;;;5017363;28;20049;-67
2023/06/12 05:43:38;;;;;;;4.78;3.22;;;26.80;61.90;;;;;;5023327;28;21629;-68
2023/06/12 05:46:04;;;;;;;5.88;3.67;;;26.60;62.30;;;;;;5025068;28;20022;-67
2023/06/12 05:48:30;;;;;;;5.50;3.65;;;26.60;61.50;;;;;;5026285;28;20033;-67
2023/06/12 05:50:56;;;;;;;6.15;3.67;;;25.60;64.90;;;;;;5025393;28;20491;-67
2023/06/12 05:53:21;;;;;;;7.45;3.92;;;25.00;65.90;;;;;;5027056;28;20436;-67
2023/06/12 05:55:47;;;;;;;5.60;3.40;;;24.90;67.70;;;;;;5021916;28;20234;-67
2023/06/12 05:58:13;;;;;;;6.15;3.47;;;25.90;65.20;;;;;;5023327;28;20479;-67
2023/06/12 06:00:40;;;;;;;5.78;3.67;;;27.30;63.00;;;;;;5023065;28;20485;-67
2023/06/12 06:03:06;;;;;;;6.03;3.42;;;28.20;59.60;;;;;;5024583;28;20060;-67
2023/06/12 06:05:32;;;;;;;3.65;2.85;;;29.30;58.60;;;;;;5022936;28;20025;-67
2023/06/12 06:07:58;;;;;;;7.13;3.00;;;30.70;57.80;;;;;;5018723;28;20037;-67
2023/06/12 06:10:24;;;;;;;4.47;3.17;;;31.10;56.20;;;;;;5021427;28;20087;-67
2023/06/12 06:12:52;;;;;;;9.15;3.60;;;31.10;56.70;;;;;;5014333;28;20393;-68
2023/06/12 06:15:18;;;;;;;5.20;3.38;;;31.30;55.20;;;;;;5023236;28;20009;-67
2023/06/12 06:17:43;;;;;;;6.85;3.08;;;31.40;55.40;;;;;;5004916;28;20056;-67
2023/06/12 06:20:11;;;;;;;6.22;3.10;;;30.70;56.30;;;;;;5019422;28;20124;-67
2023/06/12 06:22:36;;;;;;;6.07;3.22;;;30.90;55.90;;;;;;5022473;28;20367;-68
2023/06/12 06:25:03;;;;;;;3.95;3.10;;;30.70;54.90;;;;;;5017936;28;20022;-68
2023/06/12 06:27:29;;;;;;;5.00;3.20;;;30.90;55.40;;;;;;5017458;28;20148;-68
2023/06/12 06:29:55;;;;;;;5.78;3.90;;;31.60;54.40;;;;;;5021369;28;20036;-67
2023/06/12 06:32:21;;;;;;;6.78;3.33;;;33.20;54.10;;;;;;5021439;28;20033;-68
2023/06/12 06:34:47;;;;;;;6.40;3.40;;;34.00;52.70;;;;;;5023963;28;21102;-68
2023/06/12 06:37:13;;;;;;;5.00;3.10;;;34.50;52.30;;;;;;5021482;28;21669;-68
2023/06/12 06:39:39;;;;;;;7.47;3.55;;;35.10;51.90;;;;;;5022755;28;20021;-68
2023/06/12 06:42:05;;;;;;;5.18;3.42;;;35.40;50.40;;;;;;5018405;28;20042;-68
2023/06/12 06:44:31;;;;;;;4.65;3.60;;;36.10;51.10;;;;;;5026411;28;20025;-68
2023/06/12 06:46:56;;;;;;;3.53;3.10;;;35.70;49.30;;;;;;5019617;28;20565;-67
2023/06/12 06:49:22;;;;;;;8.70;3.50;;;33.90;51.30;;;;;;5024541;28;20052;-68
2023/06/12 06:51:48;;;;;;;7.20;3.35;;;34.10;51.50;;;;;;5024345;28;20029;-68
2023/06/12 06:54:14;;;;;;;6.45;3.42;;;34.30;52.10;;;;;;5022277;28;20498;-68
2023/06/12 06:56:39;;;;;;;9.23;3.22;;;33.90;51.90;;;;;;5025643;28;20071;-68
2023/06/12 06:59:05;;;;;;;4.25;3.63;;;33.10;53.90;;;;;;5026520;28;20083;-67
2023/06/12 07:01:33;;;;;;;6.25;3.55;;;33.70;54.50;;;;;;5025731;28;20022;-68
2023/06/12 07:03:59;;;;;;;4.55;3.53;;;34.30;53.60;;;;;;5021633;28;20398;-68
2023/06/12 07:06:25;;;;;;;5.53;3.40;;;34.20;51.80;;;;;;5022450;28;20108;-68
2023/06/12 07:08:50;;;;;;;3.22;2.92;;;32.30;53.90;;;;;;5024852;28;20027;-67
2023/06/12 07:11:16;;;;;;;5.57;3.10;;;32.30;55.00;;;;;;5027395;28;20570;-67
2023/06/12 07:13:42;;;;;;;4.82;3.22;;;31.60;56.60;;;;;;5021284;28;20560;-67
2023/06/12 07:16:07;;;;;;;4.22;3.00;;;32.60;55.30;;;;;;5021532;28;20029;-67
2023/06/12 07:18:33;;;;;;;4.47;3.17;;;33.60;53.80;;;;;;5010958;28;20037;-68
2023/06/12 07:20:59;;;;;;;3.95;3.13;;;35.10;52.00;;;;;;5025977;28;20052;-68
2023/06/12 07:23:25;;;;;;;5.68;3.15;;;35.60;50.40;;;;;;5024365;28;20066;-68
2023/06/12 07:25:50;;;;;;;3.65;3.03;;;35.70;51.20;;;;;;5024849;28;20041;-67
2023/06/12 07:28:16;;;;;;;5.93;3.13;;;36.00;49.90;;;;;;5025349;28;20049;-68
2023/06/12 07:30:42;;;;;;;4.68;3.55;;;35.70;50.70;;;;;;5028072;28;20061;-67
2023/06/12 07:33:09;;;;;;;3.75;2.80;;;34.60;52.70;;;;;;5024921;28;20454;-67
2023/06/12 07:35:35;;;;;;;4.50;2.78;;;35.30;52.10;;;;;;5025132;28;20017;-66
2023/06/12 07:38:01;;;;;;;6.05;3.28;;;35.00;52.50;;;;;;5022876;28;20026;-67
2023/06/12 07:40:26;;;;;;;7.10;3.72;;;35.60;50.00;;;;;;5026444;28;20029;-67
2023/06/12 07:42:52;;;;;;;5.03;3.20;;;36.20;49.30;;;;;;5024114;28;20482;-67
2023/06/12 07:45:18;;;;;;;5.68;2.72;;;35.00;50.40;;;;;;5030582;28;20033;-66
2023/06/12 07:47:45;;;;;;;5.80;3.80;;;35.30;51.10;;;;;;5027905;28;20487;-67
2023/06/12 07:50:11;;;;;;;4.25;2.97;;;36.00;50.70;;;;;;5022452;28;20510;-67
2023/06/12 07:52:37;;;;;;;5.65;2.97;;;35.00;49.50;;;;;;5027602;28;20037;-66
2023/06/12 07:55:03;;;;;;;4.63;3.20;;;34.80;51.50;;;;;;5027909;28;20026;-67
2023/06/12 07:57:29;;;;;;;4.45;3.28;;;34.90;50.40;;;;;;5026783;28;20060;-67
2023/06/12 07:59:55;;;;;;;4.43;3.25;;;35.40;51.20;;;;;;5028198;28;20045;-67
2023/06/12 08:02:21;;;;;;;5.95;3.55;;;36.20;49.30;;;;;;5025125;28;20097;-66
2023/06/12 08:04:46;;;;;;;3.75;3.03;;;36.60;48.90;;;;;;5024072;28;20045;-66
2023/06/12 08:07:15;;;;;;;6.78;3.00;;;37.00;50.20;;;;;;5027463;28;20029;-67
2023/06/12 08:09:41;;;;;;;4.90;3.25;;;38.40;48.50;;;;;;5023308;28;20038;-67
2023/06/12 08:12:07;;;;;;;4.70;3.42;;;36.50;48.30;;;;;;5029586;28;20493;-67
2023/06/12 08:14:33;;;;;;;3.40;3.10;;;35.60;50.40;;;;;;5021641;28;20045;-67
2023/06/12 08:16:59;;;;;;;6.43;3.10;;;35.30;52.20;;;;;;5006675;28;20025;-66
2023/06/12 08:19:26;;;;;;;3.75;3.05;;;36.30;50.90;;;;;;5025158;28;20087;-66
2023/06/12 08:21:52;;;;;;;3.58;3.28;;;36.10;50.00;;;;;;5027620;28;20032;-67
2023/06/12 08:24:18;;;;;;;3.78;3.10;;;36.40;49.50;;;;;;5024681;28;20390;-68
2023/06/12 08:26:43;;;;;;;5.10;2.63;;;36.80;50.60;;;;;;5023801;28;20032;-67
2023/06/12 08:29:10;;;;;;;3.60;3.10;;;36.80;51.30;;;;;;5024382;28;20021;-66
2023/06/12 08:31:35;;;;;;;7.13;3.00;;;36.70;49.30;;;;;;5021465;28;20025;-66
2023/06/12 08:34:01;;;;;;;5.15;2.97;;;36.50;48.70;;;;;;5024639;28;20073;-67
2023/06/12 08:36:27;;;;;;;3.83;3.00;;;36.50;49.90;;;;;;5024857;28;20040;-66
2023/06/12 08:38:52;;;;;;;5.25;2.83;;;36.40;50.10;;;;;;5020870;28;20025;-66
2023/06/12 08:41:20;;;;;;;9.98;3.05;;;36.20;49.80;;;;;;5017004;28;20025;-66
2023/06/12 08:43:47;;;;;;;5.35;3.40;;;34.90;50.80;;;;;;5024097;28;20033;-67
2023/06/12 08:46:16;;;;;;;5.82;3.80;;;35.70;50.70;;;;;;5026607;28;20548;-67
2023/06/12 08:48:43;;;;;;;6.50;2.72;;;36.50;49.90;;;;;;5021740;28;20065;-66
2023/06/12 08:51:09;;;;;;;4.07;3.05;;;36.80;49.10;;;;;;5026187;28;20068;-67
2023/06/12 08:53:35;;;;;;;4.35;3.15;;;36.60;47.80;;;;;;5019722;28;20705;-66
2023/06/12 08:56:01;;;;;;;4.85;3.13;;;36.50;48.90;;;;;;5017844;28;20025;-67
2023/06/12 08:58:27;;;;;;;4.88;3.10;;;36.50;51.20;;;;;;5022587;28;20505;-66
2023/06/12 09:00:53;;;;;;;5.78;3.17;;;36.70;48.40;;;;;;5022274;28;20117;-67
2023/06/12 09:03:19;;;;;;;5.70;2.90;;;36.20;48.30;;;;;;5020304;28;20075;-65
2023/06/12 09:05:47;;;;;;;3.85;2.90;;;36.40;49.50;;;;;;5023322;28;20042;-66
2023/06/12 09:08:13;;;;;;;7.43;3.28;;;35.80;49.10;;;;;;5033278;28;20041;-66
2023/06/12 09:10:38;;;;;;;5.95;3.33;;;35.60;50.00;;;;;;5024004;28;20094;-66
2023/06/12 09:13:09;;;;;;;3.95;3.10;;;36.10;50.50;;;;;;5025796;28;20030;-67
2023/06/12 09:15:49;;;;;;;4.35;2.63;;;36.10;47.80;;;;;;5023793;28;20072;-67
2023/06/12 09:18:14;;;;;;;6.35;3.17;;;36.80;51.00;;;;;;5006950;28;20046;-67
2023/06/12 09:20:40;;;;;;;5.32;3.05;;;37.50;49.10;;;;;;5027940;28;20100;-67
2023/06/12 09:23:05;;;;;;;3.50;2.92;;;37.20;48.10;;;;;;5022806;28;20056;-67
2023/06/12 09:25:36;;;;;;;5.75;3.25;;;36.30;47.80;;;;;;5029418;28;20032;-67
2023/06/12 09:28:05;;;;;;;3.42;3.10;;;36.50;49.50;;;;;;5024726;28;20075;-67
2023/06/12 09:30:43;;;;;;;5.15;3.90;;;36.20;48.90;;;;;;5028813;28;20029;-67
2023/06/12 09:33:09;;;;;;;4.25;3.05;;;35.80;48.80;;;;;;5022526;28;20030;-66
2023/06/12 09:35:51;;;;;;;6.50;3.50;;;35.30;48.80;;;;;;5022585;28;20080;-66
2023/06/12 09:38:16;;;;;;;3.40;3.03;;;35.40;50.00;;;;;;5021797;28;20024;-66
2023/06/12 09:40:42;;;;;;;7.85;3.38;;;35.70;50.90;;;;;;5022037;28;20044;-66
2023/06/12 09:43:07;;;;;;;3.67;3.33;;;34.70;49.30;;;;;;5017481;28;20764;-67
2023/06/12 09:45:33;;;;;;;4.07;3.47;;;35.30;50.80;;;;;;5006448;28;20515;-67
2023/06/12 09:47:59;;;;;;;7.57;3.50;;;35.70;53.10;;;;;;5020553;28;20566;-67
2023/06/12 09:50:25;;;;;;;4.75;3.80;;;36.00;50.80;;;;;;5018842;28;20049;-66
2023/06/12 09:52:57;;;;;;;4.57;3.00;;;36.40;49.20;;;;;;5023562;28;20471;-66
2023/06/12 09:55:26;;;;;;;5.05;3.58;;;35.70;49.30;;;;;;5022297;28;20479;-68
2023/06/12 09:57:52;;;;;;;4.72;3.30;;;35.40;52.20;;;;;;5021127;28;20041;-67
2023/06/12 10:00:20;;;;;;;4.55;3.47;;;36.30;50.60;;;;;;5027790;28;20116;-67
2023/06/12 10:02:53;;;;;;;5.10;3.65;;;36.50;50.30;;;;;;5027681;28;20030;-66
2023/06/12 10:05:24;;;;;;;5.55;3.40;;;36.30;48.10;;;;;;5028609;28;20025;-65
2023/06/12 10:08:00;;;;;;;7.10;3.40;;;35.70;48.90;;;;;;5020837;28;20036;-67
2023/06/12 10:10:26;;;;;;;5.28;3.65;;;35.00;49.40;;;;;;5027992;28;20387;-66
2023/06/12 10:12:53;;;;;;;6.07;3.80;;;34.70;50.90;;;;;;5024959;28;20038;-66
2023/06/12 10:15:19;;;;;;;9.20;4.05;;;33.90;51.40;;;;;;5028037;28;20032;-68
2023/06/12 10:17:47;;;;;;;6.28;3.72;;;33.70;51.10;;;;;;5011286;28;20096;-69
2023/06/12 10:20:13;;;;;;;4.78;3.33;;;33.70;52.10;;;;;;5026157;28;20029;-69
2023/06/12 10:22:38;;;;;;;8.43;3.92;;;33.40;52.70;;;;;;5024016;28;20026;-68
2023/06/12 10:25:06;;;;;;;4.97;3.47;;;33.10;52.10;;;;;;5023023;28;20034;-68
2023/06/12 10:27:32;;;;;;;6.57;3.47;;;33.00;54.50;;;;;;5028184;28;20029;-68
2023/06/12 10:30:00;;;;;;;5.95;3.40;;;32.50;54.90;;;;;;5022995;28;20083;-68
2023/06/12 10:32:33;;;;;;;6.03;3.35;;;32.70;53.30;;;;;;5027977;28;20406;-69
2023/06/12 10:34:59;;;;;;;;;;;32.80;55.60;;;;;;5026613;28;20795;-68
2023/06/12 10:37:29;;;;;;;5.85;3.97;;;32.80;53.20;;;;;;5024257;28;19913;-68
2023/06/12 10:40:10;;;;;;;5.35;3.45;;;32.90;53.60;;;;;;5028281;28;20107;-68
2023/06/12 10:42:39;;;;;;;8.18;3.80;;;32.70;53.00;;;;;;5023786;28;20025;-68
2023/06/12 10:45:13;;;;;;;4.43;3.47;;;32.50;53.90;;;;;;5020008;28;20034;-69
2023/06/12 10:47:39;;;;;;;5.38;3.45;;;32.10;55.40;;;;;;5015754;28;20029;-69
2023/06/12 10:50:05;;;;;;;5.85;3.72;;;31.70;54.70;;;;;;5022405;28;20091;-68
2023/06/12 10:52:31;;;;;;;5.95;3.63;;;31.50;54.40;;;;;;5023926;28;20022;-68
2023/06/12 10:55:20;;;;;;;7.05;4.57;;;31.50;54.00;;;;;;5028176;28;20086;-68
2023/06/12 10:57:52;;;;;;;5.38;3.28;;;31.30;54.60;;;;;;5023011;28;20028;-68
2023/06/12 11:00:19;;;;;;;4.30;3.70;;;31.30;54.70;;;;;;5022674;28;20018;-68
2023/06/12 11:02:46;;;;;;;4.55;3.38;;;31.40;53.20;;;;;;5028916;28;20037;-68
2023/06/12 11:05:13;;;;;;;5.00;3.38;;;31.70;54.20;;;;;;5030829;28;20030;-68
2023/06/12 11:07:39;;;;;;;5.32;3.80;;;32.00;53.80;;;;;;5029242;28;20021;-68
2023/06/12 11:10:11;;;;;;;5.20;3.55;;;31.50;52.20;;;;;;5027892;28;20032;-68
2023/06/12 11:12:45;;;;;;;5.03;3.60;;;31.40;53.60;;;;;;5026628;28;20033;-69
2023/06/12 11:15:11;;;;;;;5.90;3.33;;;31.50;53.60;;;;;;5031456;28;20808;-68
2023/06/12 11:17:36;;;;;;;5.90;3.75;;;31.60;53.30;;;;;;5012841;28;20077;-68
2023/06/12 11:20:05;;;;;;;6.60;3.33;;;31.80;54.40;;;;;;5026963;28;20146;-68
2023/06/12 11:22:31;;;;;;;4.47;3.58;;;31.90;54.00;;;;;;5028125;28;20072;-68
2023/06/12 11:25:06;;;;;;;4.75;3.28;;;31.40;53.60;;;;;;5025241;28;20112;-69
2023/06/12 11:27:34;;;;;;;3.70;2.97;;;31.40;53.90;;;;;;5027419;28;20091;-68
2023/06/12 11:30:11;;;;;;;5.32;3.88;;;31.10;54.50;;;;;;5026766;28;20060;-68
2023/06/12 11:32:37;;;;;;;7.40;3.13;;;31.30;55.40;;;;;;5022665;28;20457;-68
2023/06/12 11:35:04;;;;;;;9.38;3.80;;;31.60;55.80;;;;;;5020451;28;20109;-68
2023/06/12 11:37:30;;;;;;;4.15;3.55;;;31.80;52.40;;;;;;5021992;28;20025;-68
2023/06/12 11:40:01;;;;;;;4.88;3.58;;;31.70;52.70;;;;;;5019106;28;20155;-68
2023/06/12 11:42:27;;;;;;;8.70;3.83;;;31.70;53.80;;;;;;5020687;28;20084;-68
2023/06/12 11:44:53;;;;;;;6.40;3.80;;;31.60;54.20;;;;;;5032349;28;20029;-68
2023/06/12 11:47:19;;;;;;;5.05;3.50;;;31.50;53.10;;;;;;5017562;28;20026;-68
2023/06/12 11:49:45;;;;;;;5.07;3.67;;;31.40;53.20;;;;;;5029929;28;20052;-68
2023/06/12 11:52:10;;;;;;;8.27;3.97;;;31.20;52.10;;;;;;5024047;28;20037;-68
2023/06/12 11:54:55;;;;;;;3.90;3.05;;;31.20;53.60;;;;;;5027388;28;20034;-68
2023/06/12 11:57:24;;;;;;;4.32;3.53;;;31.00;50.50;;;;;;5022566;28;20017;-68
2023/06/12 11:59:50;;;;;;;4.95;3.55;;;31.10;51.40;;;;;;5030759;28;20052;-68
2023/06/12 12:02:16;;;;;;;5.10;3.67;;;31.20;50.50;;;;;;5032259;28;20483;-69
2023/06/12 12:04:41;;;;;;;8.85;3.75;;;31.10;51.10;;;;;;5025597;28;20041;-68
2023/06/12 12:07:07;;;;;;;5.32;3.35;;;31.10;49.60;;;;;;5029104;28;20068;-69
2023/06/12 12:09:33;;;;;;;6.72;3.65;;;31.50;52.80;;;;;;5027705;28;20470;-69
2023/06/12 12:12:07;;;;;;;24.23;4.70;;;31.70;51.70;;;;;;5023235;28;20029;-68
2023/06/12 12:14:32;;;;;;;5.45;3.85;;;31.70;52.00;;;;;;5024480;28;20100;-68
2023/06/12 12:17:04;;;;;;;4.40;3.42;;;31.50;50.80;;;;;;5028236;28;20502;-68
2023/06/12 12:19:31;;;;;;;7.85;3.85;;;31.40;53.10;;;;;;5029629;28;20028;-68
2023/06/12 12:21:57;;;;;;;5.32;3.78;;;31.20;53.30;;;;;;5026840;28;20029;-68
2023/06/12 12:24:23;;;;;;;8.35;4.50;;;31.20;52.50;;;;;;5028929;28;20038;-68
2023/06/12 12:26:53;;;;;;;5.40;3.85;;;31.10;52.50;;;;;;5025293;28;20045;-68
2023/06/12 12:29:20;;;;;;;8.52;3.90;;;30.50;52.20;;;;;;5030028;28;20021;-68
2023/06/12 12:31:45;;;;;;;6.65;4.22;;;30.10;51.40;;;;;;5026592;28;20381;-68
2023/06/12 12:34:11;;;;;;;8.68;3.88;;;30.00;51.30;;;;;;5029551;28;20179;-69
2023/06/12 12:36:37;;;;;;;4.80;3.97;;;29.80;52.40;;;;;;5018396;28;20045;-68
2023/06/12 12:39:03;;;;;;;8.93;4.80;;;29.90;51.90;;;;;;5015322;28;20057;-69
2023/06/12 12:41:29;;;;;;;6.70;4.25;;;29.80;51.60;;;;;;5022514;28;20507;-68
2023/06/12 12:43:55;;;;;;;7.97;4.03;;;29.70;51.80;;;;;;5031075;28;20034;-69
2023/06/12 12:46:25;;;;;;;6.30;4.18;;;29.60;52.30;;;;;;5025664;28;20025;-68
2023/06/12 12:48:51;;;;;;;7.90;4.30;;;29.50;54.10;;;;;;5027814;28;20104;-68